MHT weather

Manchester-Boston Regional Airport
Manchester, New Hampshire, United States

Public forecast

Using degrees Fahrenheit for public forecast. Weather courtesy of forecast.io.

METAR (pilot weather report)

Retrieved 2019/05/24 13:53 UTC (27 minutes ago):

KMHT 241353Z 32013G24KT 10SM SCT034 BKN055 18/10 A2970 RMK AO2 PK WND 31030/1334 SLP068 T01780100

TAF (pilot weather forecast)

Retrieved 2019/05/24 12:21 UTC (2 hours ago):

TAF KMHT 241120Z 2412/2512 30014KT P6SM SCT040 FM241400 32021G31KT P6SM SCT035 FM242200 36019KT P6SM BKN090 FM250200 35007KT P6SM SCT250